sensor_id;sensor_type;location;lat;lon;timestamp;P1;durP1;ratioP1;P2;durP2;ratioP2
43226;SDS011;28839;52.404;9.808;2024-02-21T00:02:00;35.53;;;17.45;;
43226;SDS011;28839;52.404;9.808;2024-02-21T00:08:53;34.08;;;16.95;;
43226;SDS011;28839;52.404;9.808;2024-02-21T00:15:48;30.02;;;16.62;;
43226;SDS011;28839;52.404;9.808;2024-02-21T00:22:42;37.20;;;18.58;;
43226;SDS011;28839;52.404;9.808;2024-02-21T00:29:36;35.97;;;19.17;;
43226;SDS011;28839;52.404;9.808;2024-02-21T00:36:31;36.78;;;17.42;;
43226;SDS011;28839;52.404;9.808;2024-02-21T00:43:25;39.67;;;18.37;;
43226;SDS011;28839;52.404;9.808;2024-02-21T00:50:19;33.53;;;17.90;;
43226;SDS011;28839;52.404;9.808;2024-02-21T00:57:14;35.42;;;19.20;;
43226;SDS011;28839;52.404;9.808;2024-02-21T01:04:07;39.17;;;18.27;;
43226;SDS011;28839;52.404;9.808;2024-02-21T01:11:02;37.67;;;19.77;;
43226;SDS011;28839;52.404;9.808;2024-02-21T01:17:57;32.47;;;20.20;;
43226;SDS011;28839;52.404;9.808;2024-02-21T01:24:51;35.53;;;19.00;;
43226;SDS011;28839;52.404;9.808;2024-02-21T01:31:44;38.60;;;18.58;;
43226;SDS011;28839;52.404;9.808;2024-02-21T01:38:40;36.80;;;18.87;;
43226;SDS011;28839;52.404;9.808;2024-02-21T01:45:34;34.20;;;18.25;;
43226;SDS011;28839;52.404;9.808;2024-02-21T01:52:28;40.88;;;18.30;;
43226;SDS011;28839;52.404;9.808;2024-02-21T01:59:23;42.58;;;19.80;;
43226;SDS011;28839;52.404;9.808;2024-02-21T02:06:18;32.33;;;17.60;;
43226;SDS011;28839;52.404;9.808;2024-02-21T02:13:12;27.58;;;13.27;;
43226;SDS011;28839;52.404;9.808;2024-02-21T02:20:07;34.05;;;19.50;;
43226;SDS011;28839;52.404;9.808;2024-02-21T02:27:03;26.30;;;14.52;;
43226;SDS011;28839;52.404;9.808;2024-02-21T02:33:57;37.50;;;18.48;;
43226;SDS011;28839;52.404;9.808;2024-02-21T02:40:51;30.10;;;17.67;;
43226;SDS011;28839;52.404;9.808;2024-02-21T02:47:46;33.77;;;18.23;;
43226;SDS011;28839;52.404;9.808;2024-02-21T02:54:40;26.75;;;17.92;;
43226;SDS011;28839;52.404;9.808;2024-02-21T03:01:34;33.00;;;19.10;;
43226;SDS011;28839;52.404;9.808;2024-02-21T03:08:29;34.37;;;18.17;;
43226;SDS011;28839;52.404;9.808;2024-02-21T03:15:24;32.53;;;18.08;;
43226;SDS011;28839;52.404;9.808;2024-02-21T03:22:18;32.10;;;17.08;;
43226;SDS011;28839;52.404;9.808;2024-02-21T03:29:14;29.83;;;18.50;;
43226;SDS011;28839;52.404;9.808;2024-02-21T03:36:12;30.55;;;17.00;;
43226;SDS011;28839;52.404;9.808;2024-02-21T03:43:06;28.12;;;16.75;;
43226;SDS011;28839;52.404;9.808;2024-02-21T03:50:01;28.08;;;16.62;;
43226;SDS011;28839;52.404;9.808;2024-02-21T03:56:56;28.20;;;17.48;;
43226;SDS011;28839;52.404;9.808;2024-02-21T04:03:50;35.60;;;18.30;;
43226;SDS011;28839;52.404;9.808;2024-02-21T04:10:45;33.15;;;17.30;;
43226;SDS011;28839;52.404;9.808;2024-02-21T04:17:39;33.55;;;16.50;;
43226;SDS011;28839;52.404;9.808;2024-02-21T04:24:32;36.00;;;19.10;;
43226;SDS011;28839;52.404;9.808;2024-02-21T04:31:27;26.92;;;15.48;;
43226;SDS011;28839;52.404;9.808;2024-02-21T04:38:21;26.80;;;15.52;;
43226;SDS011;28839;52.404;9.808;2024-02-21T04:45:15;27.02;;;16.98;;
43226;SDS011;28839;52.404;9.808;2024-02-21T04:52:10;31.23;;;16.47;;
43226;SDS011;28839;52.404;9.808;2024-02-21T04:59:04;41.55;;;19.67;;
43226;SDS011;28839;52.404;9.808;2024-02-21T05:05:58;31.77;;;17.02;;
43226;SDS011;28839;52.404;9.808;2024-02-21T05:12:54;32.13;;;16.83;;
43226;SDS011;28839;52.404;9.808;2024-02-21T05:19:47;35.22;;;21.00;;
43226;SDS011;28839;52.404;9.808;2024-02-21T05:26:41;30.50;;;14.85;;
43226;SDS011;28839;52.404;9.808;2024-02-21T05:33:36;38.03;;;21.08;;
43226;SDS011;28839;52.404;9.808;2024-02-21T05:40:30;34.17;;;17.90;;
43226;SDS011;28839;52.404;9.808;2024-02-21T05:47:24;35.17;;;20.23;;
43226;SDS011;28839;52.404;9.808;2024-02-21T05:54:19;28.40;;;17.42;;
43226;SDS011;28839;52.404;9.808;2024-02-21T06:01:12;39.20;;;20.67;;
43226;SDS011;28839;52.404;9.808;2024-02-21T06:08:06;36.13;;;20.17;;
43226;SDS011;28839;52.404;9.808;2024-02-21T06:15:02;40.35;;;22.08;;
43226;SDS011;28839;52.404;9.808;2024-02-21T06:21:56;37.88;;;21.80;;
43226;SDS011;28839;52.404;9.808;2024-02-21T06:28:50;30.60;;;19.90;;
43226;SDS011;28839;52.404;9.808;2024-02-21T06:35:45;40.53;;;23.65;;
43226;SDS011;28839;52.404;9.808;2024-02-21T06:42:39;33.63;;;18.80;;
43226;SDS011;28839;52.404;9.808;2024-02-21T06:49:33;28.02;;;18.62;;
43226;SDS011;28839;52.404;9.808;2024-02-21T06:56:30;33.25;;;20.00;;
43226;SDS011;28839;52.404;9.808;2024-02-21T07:03:23;36.95;;;19.95;;
43226;SDS011;28839;52.404;9.808;2024-02-21T07:10:17;36.08;;;17.52;;
43226;SDS011;28839;52.404;9.808;2024-02-21T07:17:12;30.83;;;17.48;;
43226;SDS011;28839;52.404;9.808;2024-02-21T07:24:06;30.58;;;16.37;;
43226;SDS011;28839;52.404;9.808;2024-02-21T07:31:00;31.13;;;16.57;;
43226;SDS011;28839;52.404;9.808;2024-02-21T07:37:55;25.85;;;16.37;;
43226;SDS011;28839;52.404;9.808;2024-02-21T07:44:49;32.42;;;17.33;;
43226;SDS011;28839;52.404;9.808;2024-02-21T07:51:43;28.60;;;15.93;;
43226;SDS011;28839;52.404;9.808;2024-02-21T07:58:38;24.63;;;15.80;;
43226;SDS011;28839;52.404;9.808;2024-02-21T08:05:33;22.50;;;14.87;;
43226;SDS011;28839;52.404;9.808;2024-02-21T08:12:27;30.12;;;17.25;;
43226;SDS011;28839;52.404;9.808;2024-02-21T08:19:22;25.85;;;15.40;;
43226;SDS011;28839;52.404;9.808;2024-02-21T08:26:16;23.80;;;13.98;;
43226;SDS011;28839;52.404;9.808;2024-02-21T08:33:10;25.15;;;14.40;;
43226;SDS011;28839;52.404;9.808;2024-02-21T08:40:06;25.40;;;13.88;;
43226;SDS011;28839;52.404;9.808;2024-02-21T08:47:01;22.75;;;13.88;;
43226;SDS011;28839;52.404;9.808;2024-02-21T08:53:55;25.77;;;12.93;;
43226;SDS011;28839;52.404;9.808;2024-02-21T09:00:51;19.20;;;11.60;;
43226;SDS011;28839;52.404;9.808;2024-02-21T09:07:45;16.48;;;10.43;;
43226;SDS011;28839;52.404;9.808;2024-02-21T09:14:38;14.98;;;9.52;;
43226;SDS011;28839;52.404;9.808;2024-02-21T09:21:33;21.23;;;10.32;;
43226;SDS011;28839;52.404;9.808;2024-02-21T09:28:27;18.83;;;8.85;;
43226;SDS011;28839;52.404;9.808;2024-02-21T09:35:21;12.32;;;7.95;;
43226;SDS011;28839;52.404;9.808;2024-02-21T09:42:17;13.07;;;6.57;;
43226;SDS011;28839;52.404;9.808;2024-02-21T09:49:15;10.80;;;6.82;;
43226;SDS011;28839;52.404;9.808;2024-02-21T09:56:14;17.52;;;8.20;;
43226;SDS011;28839;52.404;9.808;2024-02-21T10:03:10;13.77;;;5.97;;
43226;SDS011;28839;52.404;9.808;2024-02-21T10:10:05;8.75;;;5.47;;
43226;SDS011;28839;52.404;9.808;2024-02-21T10:17:00;9.35;;;5.60;;
43226;SDS011;28839;52.404;9.808;2024-02-21T10:30:50;10.27;;;4.82;;
43226;SDS011;28839;52.404;9.808;2024-02-21T10:37:44;13.00;;;5.97;;
43226;SDS011;28839;52.404;9.808;2024-02-21T10:44:39;13.02;;;4.80;;
43226;SDS011;28839;52.404;9.808;2024-02-21T10:51:33;11.32;;;4.70;;
43226;SDS011;28839;52.404;9.808;2024-02-21T10:58:30;8.75;;;3.67;;
43226;SDS011;28839;52.404;9.808;2024-02-21T11:05:26;9.52;;;3.85;;
43226;SDS011;28839;52.404;9.808;2024-02-21T11:12:21;11.12;;;3.92;;
43226;SDS011;28839;52.404;9.808;2024-02-21T11:19:18;9.18;;;4.45;;
43226;SDS011;28839;52.404;9.808;2024-02-21T11:26:19;10.68;;;3.75;;
43226;SDS011;28839;52.404;9.808;2024-02-21T11:33:13;7.25;;;3.45;;
43226;SDS011;28839;52.404;9.808;2024-02-21T11:40:07;9.23;;;3.30;;
43226;SDS011;28839;52.404;9.808;2024-02-21T11:47:03;6.43;;;2.90;;
43226;SDS011;28839;52.404;9.808;2024-02-21T11:53:57;8.13;;;3.10;;
43226;SDS011;28839;52.404;9.808;2024-02-21T12:00:51;7.60;;;2.90;;
43226;SDS011;28839;52.404;9.808;2024-02-21T12:07:46;7.70;;;3.17;;
43226;SDS011;28839;52.404;9.808;2024-02-21T12:14:40;8.70;;;3.83;;
43226;SDS011;28839;52.404;9.808;2024-02-21T12:21:34;7.62;;;3.47;;
43226;SDS011;28839;52.404;9.808;2024-02-21T12:28:30;7.28;;;3.37;;
43226;SDS011;28839;52.404;9.808;2024-02-21T12:35:24;5.32;;;3.25;;
43226;SDS011;28839;52.404;9.808;2024-02-21T12:42:18;6.40;;;3.90;;
43226;SDS011;28839;52.404;9.808;2024-02-21T12:49:13;6.70;;;3.87;;
43226;SDS011;28839;52.404;9.808;2024-02-21T12:56:08;12.57;;;4.32;;
43226;SDS011;28839;52.404;9.808;2024-02-21T13:03:01;22.02;;;6.22;;
43226;SDS011;28839;52.404;9.808;2024-02-21T13:09:57;11.57;;;5.05;;
43226;SDS011;28839;52.404;9.808;2024-02-21T13:16:51;11.60;;;5.82;;
43226;SDS011;28839;52.404;9.808;2024-02-21T13:23:45;11.02;;;6.10;;
43226;SDS011;28839;52.404;9.808;2024-02-21T13:30:40;13.23;;;6.57;;
43226;SDS011;28839;52.404;9.808;2024-02-21T13:37:34;11.90;;;6.18;;
43226;SDS011;28839;52.404;9.808;2024-02-21T13:44:29;10.35;;;5.62;;
43226;SDS011;28839;52.404;9.808;2024-02-21T13:51:24;14.53;;;5.47;;
43226;SDS011;28839;52.404;9.808;2024-02-21T13:58:18;10.07;;;5.32;;
43226;SDS011;28839;52.404;9.808;2024-02-21T14:05:12;9.97;;;5.03;;
43226;SDS011;28839;52.404;9.808;2024-02-21T14:12:08;9.77;;;4.35;;
43226;SDS011;28839;52.404;9.808;2024-02-21T14:19:01;9.55;;;4.70;;
43226;SDS011;28839;52.404;9.808;2024-02-21T14:25:55;8.63;;;3.47;;
43226;SDS011;28839;52.404;9.808;2024-02-21T14:32:50;8.60;;;3.77;;
43226;SDS011;28839;52.404;9.808;2024-02-21T14:39:44;5.30;;;2.87;;
43226;SDS011;28839;52.404;9.808;2024-02-21T14:46:38;6.62;;;3.25;;
43226;SDS011;28839;52.404;9.808;2024-02-21T14:53:33;8.80;;;3.60;;
43226;SDS011;28839;52.404;9.808;2024-02-21T15:00:27;9.63;;;3.95;;
43226;SDS011;28839;52.404;9.808;2024-02-21T15:14:18;14.23;;;4.15;;
43226;SDS011;28839;52.404;9.808;2024-02-21T15:21:12;8.70;;;3.70;;
43226;SDS011;28839;52.404;9.808;2024-02-21T15:28:07;8.02;;;3.67;;
43226;SDS011;28839;52.404;9.808;2024-02-21T15:35:02;6.05;;;3.15;;
43226;SDS011;28839;52.404;9.808;2024-02-21T15:41:58;7.97;;;2.78;;
43226;SDS011;28839;52.404;9.808;2024-02-21T15:48:52;6.50;;;2.87;;
43226;SDS011;28839;52.404;9.808;2024-02-21T15:55:48;6.28;;;2.83;;
43226;SDS011;28839;52.404;9.808;2024-02-21T16:02:42;10.27;;;3.78;;
43226;SDS011;28839;52.404;9.808;2024-02-21T16:09:39;11.12;;;3.00;;
43226;SDS011;28839;52.404;9.808;2024-02-21T16:16:37;12.13;;;3.97;;
43226;SDS011;28839;52.404;9.808;2024-02-21T16:23:32;7.60;;;3.58;;
43226;SDS011;28839;52.404;9.808;2024-02-21T16:30:26;11.70;;;3.93;;
43226;SDS011;28839;52.404;9.808;2024-02-21T16:37:21;10.35;;;3.15;;
43226;SDS011;28839;52.404;9.808;2024-02-21T16:44:15;10.48;;;3.87;;
43226;SDS011;28839;52.404;9.808;2024-02-21T16:51:09;9.60;;;3.37;;
43226;SDS011;28839;52.404;9.808;2024-02-21T16:58:04;12.80;;;3.70;;
43226;SDS011;28839;52.404;9.808;2024-02-21T17:04:58;10.90;;;4.12;;
43226;SDS011;28839;52.404;9.808;2024-02-21T17:11:52;9.33;;;5.13;;
43226;SDS011;28839;52.404;9.808;2024-02-21T17:18:47;9.93;;;4.03;;
43226;SDS011;28839;52.404;9.808;2024-02-21T17:25:41;8.45;;;4.15;;
43226;SDS011;28839;52.404;9.808;2024-02-21T17:32:35;9.57;;;4.10;;
43226;SDS011;28839;52.404;9.808;2024-02-21T17:39:31;10.93;;;4.57;;
43226;SDS011;28839;52.404;9.808;2024-02-21T17:46:25;8.73;;;4.57;;
43226;SDS011;28839;52.404;9.808;2024-02-21T17:53:19;11.23;;;3.80;;
43226;SDS011;28839;52.404;9.808;2024-02-21T18:00:15;9.40;;;4.22;;
43226;SDS011;28839;52.404;9.808;2024-02-21T18:07:09;9.95;;;4.28;;
43226;SDS011;28839;52.404;9.808;2024-02-21T18:14:03;11.00;;;4.50;;
43226;SDS011;28839;52.404;9.808;2024-02-21T18:21:01;10.45;;;4.40;;
43226;SDS011;28839;52.404;9.808;2024-02-21T18:27:55;8.82;;;4.03;;
43226;SDS011;28839;52.404;9.808;2024-02-21T18:34:49;14.50;;;5.50;;
43226;SDS011;28839;52.404;9.808;2024-02-21T18:41:44;13.10;;;4.85;;
43226;SDS011;28839;52.404;9.808;2024-02-21T18:48:38;9.80;;;4.35;;
43226;SDS011;28839;52.404;9.808;2024-02-21T18:55:38;12.07;;;4.28;;
43226;SDS011;28839;52.404;9.808;2024-02-21T19:02:33;10.73;;;4.93;;
43226;SDS011;28839;52.404;9.808;2024-02-21T19:09:27;13.48;;;6.43;;
43226;SDS011;28839;52.404;9.808;2024-02-21T19:16:21;12.30;;;5.20;;
43226;SDS011;28839;52.404;9.808;2024-02-21T19:23:16;10.97;;;4.67;;
43226;SDS011;28839;52.404;9.808;2024-02-21T19:30:10;24.05;;;9.88;;
43226;SDS011;28839;52.404;9.808;2024-02-21T19:37:04;7.55;;;3.97;;
43226;SDS011;28839;52.404;9.808;2024-02-21T19:44:00;8.10;;;4.40;;
43226;SDS011;28839;52.404;9.808;2024-02-21T19:50:54;10.38;;;5.30;;
43226;SDS011;28839;52.404;9.808;2024-02-21T19:57:49;20.80;;;9.60;;
43226;SDS011;28839;52.404;9.808;2024-02-21T20:04:44;10.60;;;4.75;;
43226;SDS011;28839;52.404;9.808;2024-02-21T20:11:38;12.20;;;4.20;;
43226;SDS011;28839;52.404;9.808;2024-02-21T20:18:32;9.23;;;4.10;;
43226;SDS011;28839;52.404;9.808;2024-02-21T20:25:27;9.45;;;4.47;;
43226;SDS011;28839;52.404;9.808;2024-02-21T20:32:21;8.60;;;3.92;;
43226;SDS011;28839;52.404;9.808;2024-02-21T20:39:15;10.77;;;3.90;;
43226;SDS011;28839;52.404;9.808;2024-02-21T20:46:13;10.02;;;3.92;;
43226;SDS011;28839;52.404;9.808;2024-02-21T20:53:07;6.90;;;3.37;;
43226;SDS011;28839;52.404;9.808;2024-02-21T21:00:01;10.55;;;3.83;;
43226;SDS011;28839;52.404;9.808;2024-02-21T21:06:57;9.18;;;3.95;;
43226;SDS011;28839;52.404;9.808;2024-02-21T21:13:51;11.32;;;4.20;;
43226;SDS011;28839;52.404;9.808;2024-02-21T21:20:44;11.43;;;3.87;;
43226;SDS011;28839;52.404;9.808;2024-02-21T21:27:40;9.47;;;3.07;;
43226;SDS011;28839;52.404;9.808;2024-02-21T21:34:35;11.27;;;3.05;;
43226;SDS011;28839;52.404;9.808;2024-02-21T21:41:30;6.95;;;2.85;;
43226;SDS011;28839;52.404;9.808;2024-02-21T21:48:25;9.20;;;3.80;;
43226;SDS011;28839;52.404;9.808;2024-02-21T21:55:19;5.22;;;3.30;;
43226;SDS011;28839;52.404;9.808;2024-02-21T22:02:13;5.45;;;2.50;;
43226;SDS011;28839;52.404;9.808;2024-02-21T22:09:08;10.02;;;3.35;;
43226;SDS011;28839;52.404;9.808;2024-02-21T22:16:02;7.07;;;2.67;;
43226;SDS011;28839;52.404;9.808;2024-02-21T22:29:52;7.45;;;3.20;;
43226;SDS011;28839;52.404;9.808;2024-02-21T22:36:48;6.50;;;2.40;;
43226;SDS011;28839;52.404;9.808;2024-02-21T22:43:42;9.50;;;4.33;;
43226;SDS011;28839;52.404;9.808;2024-02-21T22:50:37;10.23;;;4.87;;
43226;SDS011;28839;52.404;9.808;2024-02-21T22:57:32;10.52;;;4.05;;
43226;SDS011;28839;52.404;9.808;2024-02-21T23:04:26;5.60;;;2.70;;
43226;SDS011;28839;52.404;9.808;2024-02-21T23:11:21;5.87;;;2.83;;
43226;SDS011;28839;52.404;9.808;2024-02-21T23:18:15;5.55;;;2.65;;
43226;SDS011;28839;52.404;9.808;2024-02-21T23:25:09;7.18;;;2.85;;
43226;SDS011;28839;52.404;9.808;2024-02-21T23:38:59;6.03;;;2.75;;
43226;SDS011;28839;52.404;9.808;2024-02-21T23:45:53;6.97;;;2.67;;
43226;SDS011;28839;52.404;9.808;2024-02-21T23:59:43;6.68;;;3.05;;
